Central Cty, Kentucky
Current Conditions -  °F | °C
As of 4:35 PM on Monday 24 Nov 2014 (Local Time) from K2I0 Reporting Station
Scattered Clouds Scattered Clouds  
Wind Chill: 44°   Ceiling: Unl
Heat Index: 49°   Visibility: 10mi
Dew Point: 34°   Wind: 15mph
Humidity: 54%   Direction: 260°W
Pressure: 29.87"   Gusts: 22mph
Location:  37.3137°N, 87.1024°W
Report Text: K2I0 242235Z AUTO 26013G19KT 10SM SCT048 10/01 A2987 RMK AO2 T00970009
Loading
Personal Weather Stations






























Interactive Weather Map New forecast layout! Learn more

10-Day Weather Forecast

Advertisements
Track Severe Weather on mobile